Time;durP1;ratioP1;P1;durP2;ratioP2;P2;SDS_P1;SDS_P2;PMS_P1;PMS_P2;Temp;Humidity;BMP_temperature;BMP_pressure;BME280_temperature;BME280_humidity;BME280_pressure;Samples;Min_cycle;Max_cycle;Signal;HPM_P1;HPM_P2
2023/01/21 00:00:14;;;;;;;2.50;2.30;;;3.20;73.80;;;;;;6257516;28;20955;-66
2023/01/21 00:03:18;;;;;;;2.60;2.40;;;3.30;73.70;;;;;;6249531;28;20826;-66
2023/01/21 00:06:21;;;;;;;3.10;2.80;;;3.30;73.40;;;;;;6249429;28;20459;-66
2023/01/21 00:09:25;;;;;;;2.80;2.53;;;3.30;73.60;;;;;;6260165;28;20458;-64
2023/01/21 00:12:30;;;;;;;3.00;2.80;;;3.30;73.80;;;;;;6273941;28;20450;-63
2023/01/21 00:15:34;;;;;;;2.93;2.73;;;3.30;73.70;;;;;;6269521;28;20447;-63
2023/01/21 00:18:38;;;;;;;2.00;1.83;;;3.30;73.60;;;;;;6274032;28;20575;-64
2023/01/21 00:21:41;;;;;;;3.13;2.27;;;3.30;74.10;;;;;;6273621;28;20735;-63
2023/01/21 00:24:44;;;;;;;3.07;2.87;;;3.30;74.10;;;;;;6273663;28;20465;-65
2023/01/21 00:27:49;;;;;;;2.27;2.13;;;3.20;73.70;;;;;;6296776;28;20614;-64
2023/01/21 00:30:56;;;;;;;1.90;1.80;;;3.20;73.20;;;;;;6298532;28;20897;-65
2023/01/21 00:33:59;;;;;;;2.00;1.90;;;3.20;73.50;;;;;;6298503;28;20757;-65
2023/01/21 00:37:02;;;;;;;2.30;2.10;;;3.10;73.30;;;;;;6280836;28;20481;-65
2023/01/21 00:40:09;;;;;;;1.97;1.87;;;3.20;73.40;;;;;;6273496;28;20471;-65
2023/01/21 00:43:13;;;;;;;2.73;2.40;;;3.10;73.20;;;;;;6273842;28;20465;-65
2023/01/21 00:46:17;;;;;;;2.17;1.97;;;3.10;73.50;;;;;;6272894;28;20842;-65
2023/01/21 00:49:20;;;;;;;2.50;2.03;;;3.10;72.90;;;;;;6273424;28;20840;-65
2023/01/21 00:52:23;;;;;;;2.80;2.27;;;3.10;72.30;;;;;;6272865;28;20481;-64
2023/01/21 00:55:27;;;;;;;2.00;1.90;;;3.00;72.60;;;;;;6273731;28;20469;-64
2023/01/21 00:58:32;;;;;;;2.40;2.20;;;3.00;72.60;;;;;;6272979;28;20636;-64
2023/01/21 01:01:37;;;;;;;3.07;2.77;;;3.00;72.00;;;;;;6276960;28;20528;-64
2023/01/21 01:04:40;;;;;;;2.97;2.50;;;3.10;72.50;;;;;;6277788;28;20474;-64
2023/01/21 01:07:45;;;;;;;2.73;1.90;;;3.10;72.10;;;;;;6277555;28;20489;-65
2023/01/21 01:10:48;;;;;;;2.57;2.37;;;3.10;72.00;;;;;;6277807;28;20485;-64
2023/01/21 01:13:53;;;;;;;2.70;1.83;;;3.10;71.90;;;;;;6277060;28;20474;-66
2023/01/21 01:16:56;;;;;;;2.50;2.30;;;3.10;71.60;;;;;;6277576;28;20479;-66
2023/01/21 01:19:59;;;;;;;2.63;2.42;;;3.10;71.70;;;;;;6276901;28;20885;-67
2023/01/21 01:23:03;;;;;;;2.43;2.03;;;3.10;70.90;;;;;;6269078;28;20246;-63
2023/01/21 01:26:09;;;;;;;2.13;2.00;;;3.20;70.40;;;;;;6287617;28;20476;-63
2023/01/21 01:29:14;;;;;;;1.80;1.70;;;3.10;70.60;;;;;;6302590;28;20957;-64
2023/01/21 01:32:17;;;;;;;2.00;1.90;;;3.20;70.30;;;;;;6302943;28;20472;-64
2023/01/21 01:35:20;;;;;;;2.87;2.17;;;3.20;70.60;;;;;;6297318;28;20897;-65
2023/01/21 01:38:24;;;;;;;2.30;1.93;;;3.10;70.00;;;;;;6277931;28;20478;-64
2023/01/21 01:41:29;;;;;;;2.03;1.83;;;3.10;69.90;;;;;;6277358;28;20542;-63
2023/01/21 01:44:56;;;;;;;2.13;2.03;;;3.20;70.60;;;;;;6276651;28;20474;-64
2023/01/21 01:48:05;;;;;;;2.10;2.00;;;3.30;69.80;;;;;;6252543;28;20475;-67
2023/01/21 01:51:09;;;;;;;2.37;2.13;;;3.30;69.80;;;;;;6252778;28;20783;-65
2023/01/21 01:54:15;;;;;;;2.40;2.20;;;3.30;69.50;;;;;;6252400;28;20975;-64
2023/01/21 01:57:22;;;;;;;2.27;2.10;;;3.30;69.40;;;;;;6252438;28;20474;-66
2023/01/21 02:00:27;;;;;;;2.57;2.37;;;3.30;68.90;;;;;;6251804;28;20462;-64
2023/01/21 02:03:53;;;;;;;2.23;2.03;;;3.30;69.50;;;;;;6251861;28;20505;-64
2023/01/21 02:06:57;;;;;;;2.07;1.97;;;3.30;68.90;;;;;;6251810;28;20478;-63
2023/01/21 02:10:01;;;;;;;2.77;2.50;;;3.30;68.90;;;;;;6251303;28;20471;-63
2023/01/21 02:13:04;;;;;;;3.77;2.30;;;3.30;69.30;;;;;;6250864;28;20471;-65
2023/01/21 02:16:36;;;;;;;2.60;2.13;;;3.30;68.90;;;;;;6251173;28;20816;-66
2023/01/21 02:19:58;;;;;;;3.60;2.47;;;3.40;69.00;;;;;;6241654;28;20470;-64
2023/01/21 02:23:08;;;;;;;2.47;2.27;;;3.40;69.00;;;;;;6251307;28;20954;-64
2023/01/21 02:26:41;;;;;;;2.77;2.40;;;3.30;68.90;;;;;;6275448;28;20620;-63
2023/01/21 02:30:06;;;;;;;3.03;2.77;;;3.30;68.90;;;;;;6300661;28;20488;-67
2023/01/21 02:33:37;;;;;;;2.00;1.87;;;3.40;69.00;;;;;;6300864;28;20486;-67
2023/01/21 02:36:51;;;;;;;2.77;2.57;;;3.40;68.30;;;;;;6268680;28;20438;-65
2023/01/21 02:40:06;;;;;;;2.97;2.37;;;3.30;68.80;;;;;;6263114;28;20475;-65
2023/01/21 02:43:18;;;;;;;2.60;2.40;;;3.30;68.90;;;;;;6263217;28;20474;-65
2023/01/21 02:46:34;;;;;;;2.33;2.13;;;3.20;68.80;;;;;;6263112;28;20851;-65
2023/01/21 02:49:42;;;;;;;2.77;2.13;;;3.20;73.70;;;;;;6259824;28;20529;-64
2023/01/21 02:52:45;;;;;;;2.13;1.93;;;3.30;72.50;;;;;;6261357;28;20938;-64
2023/01/21 02:55:48;;;;;;;3.13;2.00;;;3.30;69.70;;;;;;6265075;28;20532;-64
2023/01/21 02:58:54;;;;;;;2.87;2.67;;;3.30;68.90;;;;;;6268476;28;20479;-64
2023/01/21 03:02:13;;;;;;;3.03;2.73;;;3.40;69.00;;;;;;6259848;28;20758;-65
2023/01/21 03:05:24;;;;;;;2.50;2.30;;;3.30;68.10;;;;;;6259342;28;20561;-64
2023/01/21 03:08:33;;;;;;;3.07;2.30;;;3.30;67.80;;;;;;6273677;28;20853;-64
2023/01/21 03:11:37;;;;;;;2.67;2.43;;;3.30;68.10;;;;;;6275074;28;20505;-64
2023/01/21 03:18:11;;;;;;;2.70;2.07;;;3.30;68.40;;;;;;6241892;28;20969;-65
2023/01/21 03:21:21;;;;;;;5.87;3.73;;;3.30;68.90;;;;;;6274704;28;20481;-64
2023/01/21 03:24:25;;;;;;;2.70;2.50;;;3.30;67.70;;;;;;6274476;28;20449;-64
2023/01/21 03:27:31;;;;;;;3.63;2.30;;;3.30;68.80;;;;;;6295460;28;20442;-63
2023/01/21 03:30:36;;;;;;;2.50;2.30;;;3.20;69.40;;;;;;6299424;28;20474;-64
2023/01/21 03:33:47;;;;;;;2.43;2.23;;;3.20;68.30;;;;;;6299324;28;20473;-63
2023/01/21 03:36:57;;;;;;;2.73;2.43;;;3.20;68.20;;;;;;6299326;28;20757;-64
2023/01/21 03:40:13;;;;;;;3.13;2.70;;;3.20;68.80;;;;;;6299141;28;20469;-64
2023/01/21 03:43:17;;;;;;;2.73;2.53;;;3.20;68.60;;;;;;6299263;28;20466;-64
2023/01/21 03:46:25;;;;;;;2.00;1.90;;;3.20;68.50;;;;;;6299820;28;20476;-64
2023/01/21 03:49:33;;;;;;;2.70;2.23;;;3.20;68.80;;;;;;6299351;28;20481;-64
2023/01/21 03:52:40;;;;;;;3.67;2.57;;;3.20;68.70;;;;;;6299099;28;20474;-64
2023/01/21 03:55:43;;;;;;;3.50;3.20;;;3.10;68.70;;;;;;6299354;28;20957;-64
2023/01/21 03:58:46;;;;;;;2.77;2.10;;;3.20;68.80;;;;;;6298993;28;20561;-64
2023/01/21 04:01:49;;;;;;;2.60;2.40;;;3.20;68.80;;;;;;6299165;28;20476;-64
2023/01/21 04:04:52;;;;;;;2.47;2.27;;;3.20;68.80;;;;;;6299113;28;20552;-64
2023/01/21 04:07:57;;;;;;;2.50;2.30;;;3.10;68.30;;;;;;6297975;28;20542;-64
2023/01/21 04:11:00;;;;;;;2.60;2.33;;;3.00;68.90;;;;;;6297921;28;20480;-64
2023/01/21 04:14:03;;;;;;;2.70;2.50;;;3.10;68.70;;;;;;6297296;28;20819;-64
2023/01/21 04:17:07;;;;;;;2.53;2.37;;;3.10;68.70;;;;;;6297782;28;20469;-64
2023/01/21 04:20:11;;;;;;;2.33;2.13;;;3.10;68.90;;;;;;6297132;28;20989;-64
2023/01/21 04:23:16;;;;;;;2.80;2.60;;;3.10;68.70;;;;;;6298509;28;20984;-64
2023/01/21 04:26:19;;;;;;;3.67;3.03;;;3.20;68.80;;;;;;6289858;28;20470;-64
2023/01/21 04:29:22;;;;;;;2.33;2.20;;;3.10;68.70;;;;;;6298274;28;20973;-64
2023/01/21 04:32:25;;;;;;;2.70;2.50;;;3.20;68.90;;;;;;6298343;28;20477;-64
2023/01/21 04:35:29;;;;;;;2.30;2.20;;;3.20;68.80;;;;;;6300648;28;20473;-64
2023/01/21 04:38:33;;;;;;;2.03;1.77;;;3.10;68.70;;;;;;6303722;28;20473;-64
2023/01/21 04:41:36;;;;;;;3.40;2.53;;;3.10;68.70;;;;;;6303361;28;20466;-64
2023/01/21 04:44:39;;;;;;;2.20;2.10;;;3.10;69.30;;;;;;6303381;28;20469;-64
2023/01/21 04:47:43;;;;;;;2.90;2.60;;;3.10;69.40;;;;;;6302881;28;20473;-64
2023/01/21 04:50:47;;;;;;;2.70;2.50;;;3.10;69.50;;;;;;6302798;28;21082;-64
2023/01/21 04:53:51;;;;;;;2.90;2.10;;;3.10;69.80;;;;;;6302777;28;20972;-64
2023/01/21 04:56:54;;;;;;;3.03;2.80;;;3.10;70.00;;;;;;6303076;28;20469;-64
2023/01/21 04:59:58;;;;;;;2.63;2.40;;;3.10;70.20;;;;;;6302716;28;20484;-63
2023/01/21 05:03:01;;;;;;;3.10;2.80;;;3.10;70.20;;;;;;6302873;28;20518;-63
2023/01/21 05:06:04;;;;;;;2.93;2.70;;;3.10;70.60;;;;;;6302462;28;20975;-64
2023/01/21 05:09:09;;;;;;;3.67;2.40;;;3.10;70.70;;;;;;6302998;28;20511;-64
2023/01/21 05:12:12;;;;;;;2.70;2.50;;;3.20;70.90;;;;;;6302554;28;20477;-64
2023/01/21 05:15:15;;;;;;;2.30;2.10;;;3.20;70.50;;;;;;6302552;28;20477;-64
2023/01/21 05:18:18;;;;;;;2.60;2.40;;;3.20;70.60;;;;;;6302690;28;20481;-64
2023/01/21 05:21:22;;;;;;;2.87;2.67;;;3.30;71.10;;;;;;6302831;28;20473;-64
2023/01/21 05:24:26;;;;;;;2.97;2.77;;;3.30;71.00;;;;;;6298452;28;20438;-64
2023/01/21 05:27:30;;;;;;;2.23;2.10;;;3.30;70.80;;;;;;6298388;28;20442;-64
2023/01/21 05:30:33;;;;;;;3.13;2.83;;;3.40;70.80;;;;;;6301997;28;20477;-64
2023/01/21 05:33:36;;;;;;;2.90;2.60;;;3.40;70.90;;;;;;6302095;28;20775;-64
2023/01/21 05:36:39;;;;;;;2.83;2.50;;;3.40;71.30;;;;;;6302259;28;20437;-64
2023/01/21 05:39:44;;;;;;;3.43;3.23;;;3.40;71.40;;;;;;6302206;28;20453;-64
2023/01/21 05:42:47;;;;;;;3.50;3.20;;;3.30;71.90;;;;;;6302061;28;21107;-64
2023/01/21 05:45:51;;;;;;;4.90;3.47;;;3.30;72.20;;;;;;6301137;28;20482;-64
2023/01/21 05:48:54;;;;;;;2.70;2.50;;;3.30;72.50;;;;;;6301637;28;20472;-64
2023/01/21 05:51:57;;;;;;;3.83;3.13;;;3.30;72.90;;;;;;6301710;28;20465;-64
2023/01/21 05:55:02;;;;;;;2.90;2.70;;;3.30;73.40;;;;;;6301690;28;20476;-64
2023/01/21 05:58:05;;;;;;;2.90;2.60;;;3.30;73.80;;;;;;6301821;28;20489;-64
2023/01/21 06:01:08;;;;;;;3.70;3.40;;;3.20;74.10;;;;;;6301528;28;20469;-64
2023/01/21 06:04:12;;;;;;;3.27;3.07;;;3.20;74.60;;;;;;6301012;28;20469;-64
2023/01/21 06:07:15;;;;;;;3.40;3.10;;;3.20;74.80;;;;;;6301720;28;20470;-64
2023/01/21 06:10:21;;;;;;;3.03;2.77;;;3.20;75.10;;;;;;6301036;28;20807;-64
2023/01/21 06:13:24;;;;;;;4.07;3.40;;;3.10;75.30;;;;;;6301525;28;20466;-64
2023/01/21 06:16:27;;;;;;;4.33;3.60;;;3.10;75.60;;;;;;6301544;28;20469;-65
2023/01/21 06:19:30;;;;;;;2.80;2.60;;;3.10;75.80;;;;;;6301444;28;20496;-64
2023/01/21 06:22:33;;;;;;;3.37;3.10;;;3.10;75.80;;;;;;6301423;28;20780;-65
2023/01/21 06:25:39;;;;;;;3.60;3.10;;;3.10;75.90;;;;;;6287156;28;20473;-63
2023/01/21 06:28:43;;;;;;;5.13;3.60;;;3.10;76.00;;;;;;6276509;28;20486;-64
2023/01/21 06:31:46;;;;;;;3.60;3.30;;;3.10;75.90;;;;;;6275649;28;20470;-64
2023/01/21 06:34:49;;;;;;;4.97;3.70;;;3.10;76.10;;;;;;6276031;28;20485;-64
2023/01/21 06:37:52;;;;;;;4.07;3.70;;;3.10;76.60;;;;;;6275855;28;20486;-64
2023/01/21 06:40:57;;;;;;;5.07;4.67;;;3.20;77.00;;;;;;6276331;28;20481;-64
2023/01/21 06:44:00;;;;;;;3.60;3.30;;;3.20;77.30;;;;;;6275804;28;20493;-64
2023/01/21 06:47:03;;;;;;;4.20;3.47;;;3.20;77.30;;;;;;6275612;28;20478;-64
2023/01/21 06:50:07;;;;;;;2.97;2.73;;;3.10;77.10;;;;;;6275566;28;20596;-67
2023/01/21 06:53:10;;;;;;;3.73;3.20;;;3.10;77.30;;;;;;6275412;28;20474;-64
2023/01/21 06:56:15;;;;;;;4.67;3.93;;;3.20;78.00;;;;;;6275515;28;20481;-64
2023/01/21 06:59:18;;;;;;;4.33;3.40;;;3.20;78.70;;;;;;6275046;28;20486;-64
2023/01/21 07:02:21;;;;;;;4.00;3.60;;;3.30;78.90;;;;;;6275028;28;20474;-64
2023/01/21 07:05:25;;;;;;;4.87;4.10;;;3.30;79.30;;;;;;6275133;28;20512;-64
2023/01/21 07:08:28;;;;;;;4.70;3.60;;;3.30;79.50;;;;;;6275357;28;20485;-64
2023/01/21 07:11:33;;;;;;;6.87;4.50;;;3.40;79.90;;;;;;6274919;28;20466;-64
2023/01/21 07:14:36;;;;;;;11.80;4.13;;;3.40;80.20;;;;;;6275046;28;20478;-64
2023/01/21 07:17:39;;;;;;;4.40;4.07;;;3.40;80.50;;;;;;6274751;28;20470;-64
2023/01/21 07:20:43;;;;;;;10.10;4.80;;;3.50;80.70;;;;;;6275258;28;21068;-64
2023/01/21 07:23:46;;;;;;;4.63;4.20;;;3.40;80.50;;;;;;6274826;28;20473;-64
2023/01/21 07:26:50;;;;;;;4.30;3.90;;;3.40;80.80;;;;;;6289949;28;20470;-64
2023/01/21 07:29:53;;;;;;;7.47;4.53;;;3.40;81.00;;;;;;6299356;28;20894;-64
2023/01/21 07:32:57;;;;;;;6.70;4.73;;;3.50;80.70;;;;;;6299658;28;20469;-64
2023/01/21 07:36:00;;;;;;;8.40;6.23;;;3.60;80.70;;;;;;6299636;28;20474;-64
2023/01/21 07:39:03;;;;;;;11.90;6.00;;;3.50;80.10;;;;;;6299616;28;20484;-64
2023/01/21 07:42:09;;;;;;;5.87;4.80;;;3.50;80.30;;;;;;6299606;28;20480;-64
2023/01/21 07:45:12;;;;;;;4.30;3.87;;;3.60;80.60;;;;;;6299327;28;20469;-65
2023/01/21 07:48:15;;;;;;;4.73;4.17;;;3.60;79.60;;;;;;6299353;28;20476;-64
2023/01/21 07:51:19;;;;;;;7.30;4.47;;;3.70;79.60;;;;;;6299291;28;20484;-64
2023/01/21 07:54:22;;;;;;;4.47;3.93;;;3.70;79.60;;;;;;6299307;28;20473;-65
2023/01/21 07:57:27;;;;;;;9.20;5.97;;;3.70;79.70;;;;;;6298812;28;20457;-64
2023/01/21 08:00:30;;;;;;;8.20;6.33;;;3.80;79.80;;;;;;6299610;28;20441;-64
2023/01/21 08:03:33;;;;;;;7.93;6.77;;;3.90;79.70;;;;;;6299512;28;20445;-64
2023/01/21 08:06:40;;;;;;;7.70;6.10;;;4.00;79.70;;;;;;6299529;28;20453;-64
2023/01/21 08:09:43;;;;;;;8.10;7.30;;;3.90;79.90;;;;;;6300202;28;20473;-65
2023/01/21 08:12:48;;;;;;;10.93;6.87;;;4.00;80.00;;;;;;6304464;28;20469;-64
2023/01/21 08:15:52;;;;;;;8.83;6.93;;;4.00;80.70;;;;;;6303919;28;20465;-64
2023/01/21 08:18:55;;;;;;;8.93;7.40;;;4.00;80.80;;;;;;6304444;28;20461;-64
2023/01/21 08:21:58;;;;;;;8.10;7.20;;;4.10;81.10;;;;;;6304183;28;20529;-64
2023/01/21 08:25:01;;;;;;;8.53;6.77;;;4.00;81.30;;;;;;6295415;28;20469;-64
2023/01/21 08:28:06;;;;;;;7.70;5.77;;;4.10;81.40;;;;;;6303711;28;20952;-64
2023/01/21 08:31:12;;;;;;;8.37;5.33;;;4.20;81.30;;;;;;6303920;28;20465;-64
2023/01/21 08:34:15;;;;;;;7.47;4.80;;;4.30;81.00;;;;;;6303584;28;20473;-64
2023/01/21 08:37:19;;;;;;;3.47;3.17;;;4.40;80.40;;;;;;6303961;28;20547;-64
2023/01/21 08:40:24;;;;;;;5.90;3.47;;;4.40;79.10;;;;;;6304225;28;20487;-64
2023/01/21 08:43:29;;;;;;;4.77;3.77;;;4.50;78.60;;;;;;6303702;28;20980;-64
2023/01/21 08:46:32;;;;;;;3.53;3.20;;;4.60;78.50;;;;;;6303602;28;20469;-64
2023/01/21 08:49:36;;;;;;;4.77;3.50;;;4.70;78.00;;;;;;6303390;28;20469;-64
2023/01/21 08:52:39;;;;;;;7.83;4.13;;;4.80;77.70;;;;;;6303351;28;20481;-64
2023/01/21 08:55:42;;;;;;;3.20;3.00;;;4.90;77.30;;;;;;6303461;28;20480;-64
2023/01/21 08:58:47;;;;;;;3.80;3.23;;;5.10;76.80;;;;;;6303350;28;20557;-64
2023/01/21 09:01:50;;;;;;;3.23;2.93;;;5.10;75.90;;;;;;6303197;28;20469;-64
2023/01/21 09:04:53;;;;;;;2.60;2.40;;;5.20;75.10;;;;;;6303367;28;20552;-64
2023/01/21 09:07:57;;;;;;;3.37;2.70;;;5.20;75.10;;;;;;6302834;28;20995;-64
2023/01/21 09:11:01;;;;;;;2.47;2.27;;;5.40;74.60;;;;;;6303215;28;20461;-64
2023/01/21 09:14:06;;;;;;;2.50;2.30;;;5.40;74.10;;;;;;6303025;28;20949;-64
2023/01/21 09:17:09;;;;;;;3.50;3.20;;;5.40;73.80;;;;;;6302810;28;20476;-64
2023/01/21 09:20:13;;;;;;;3.27;2.80;;;5.50;73.50;;;;;;6302958;28;20469;-64
2023/01/21 09:23:25;;;;;;;4.77;2.37;;;5.50;73.40;;;;;;6302284;28;20482;-64
2023/01/21 09:26:28;;;;;;;3.83;2.30;;;5.60;73.40;;;;;;6293962;28;20469;-64
2023/01/21 09:29:33;;;;;;;3.20;2.43;;;5.50;72.60;;;;;;6302551;28;20477;-64
2023/01/21 09:32:36;;;;;;;4.70;2.87;;;5.50;72.90;;;;;;6298039;28;20794;-64
2023/01/21 09:35:40;;;;;;;3.90;3.60;;;5.50;72.80;;;;;;6263124;28;20470;-64
2023/01/21 09:38:43;;;;;;;2.90;2.37;;;5.60;73.00;;;;;;6263403;28;20963;-64
2023/01/21 09:41:51;;;;;;;2.90;2.70;;;5.80;72.30;;;;;;6265970;28;20810;-64
2023/01/21 09:44:59;;;;;;;3.33;2.40;;;5.80;71.30;;;;;;6260008;28;20479;-64
2023/01/21 09:48:03;;;;;;;2.97;2.67;;;5.80;70.50;;;;;;6272478;28;20470;-64
2023/01/21 09:51:17;;;;;;;2.20;2.00;;;5.80;70.10;;;;;;6259495;28;20486;-65
2023/01/21 09:54:25;;;;;;;2.20;2.00;;;5.90;68.40;;;;;;6262804;28;20954;-65
2023/01/21 09:57:51;;;;;;;2.30;1.97;;;6.00;68.30;;;;;;6260783;28;20934;-64
2023/01/21 10:00:59;;;;;;;2.50;2.30;;;6.30;67.80;;;;;;6266160;28;20466;-64
2023/01/21 10:04:17;;;;;;;3.00;2.80;;;6.50;66.80;;;;;;6265850;28;20482;-65
2023/01/21 10:07:26;;;;;;;2.50;2.30;;;6.90;66.40;;;;;;6265845;28;20466;-65
2023/01/21 10:10:37;;;;;;;2.60;2.23;;;7.40;65.00;;;;;;6263854;28;20528;-65
2023/01/21 10:13:52;;;;;;;2.23;2.00;;;7.70;64.00;;;;;;6264181;28;20475;-64
2023/01/21 10:17:06;;;;;;;2.70;1.93;;;7.80;62.20;;;;;;6262527;28;20459;-64
2023/01/21 10:20:15;;;;;;;1.70;1.60;;;7.90;61.00;;;;;;6263738;28;20963;-64
2023/01/21 10:23:24;;;;;;;2.07;1.87;;;8.00;59.40;;;;;;6253989;28;20812;-64
2023/01/21 10:26:29;;;;;;;1.70;1.60;;;8.10;59.10;;;;;;6284680;28;20473;-65
2023/01/21 10:29:40;;;;;;;3.43;1.97;;;8.30;58.90;;;;;;6300568;28;20987;-64
2023/01/21 10:32:47;;;;;;;1.90;1.80;;;8.50;58.00;;;;;;6300228;28;20917;-64
2023/01/21 10:36:10;;;;;;;3.10;2.23;;;8.60;56.90;;;;;;6300577;28;20477;-64
2023/01/21 10:39:22;;;;;;;2.37;2.17;;;8.50;56.70;;;;;;6300544;28;20985;-64
2023/01/21 10:42:53;;;;;;;1.70;1.60;;;8.40;56.50;;;;;;6300825;28;20473;-64
2023/01/21 10:46:04;;;;;;;1.90;1.70;;;8.40;56.50;;;;;;6300408;28;20965;-64
2023/01/21 10:49:26;;;;;;;6.80;6.40;;;8.30;56.10;;;;;;6300431;28;20504;-64
2023/01/21 10:52:37;;;;;;;1.90;1.80;;;8.10;55.60;;;;;;6300426;28;20760;-64
2023/01/21 10:55:52;;;;;;;1.67;1.57;;;7.90;55.80;;;;;;6300919;28;20972;-64
2023/01/21 10:58:59;;;;;;;2.87;2.20;;;7.80;56.40;;;;;;6300537;28;20869;-64
2023/01/21 11:02:21;;;;;;;2.90;2.70;;;7.50;56.10;;;;;;6300919;28;20476;-64
2023/01/21 11:05:26;;;;;;;15.47;13.87;;;7.30;55.60;;;;;;6300746;28;20468;-65
2023/01/21 11:08:30;;;;;;;11.60;10.50;;;7.30;56.40;;;;;;6300006;28;20485;-64
2023/01/21 11:11:36;;;;;;;7.67;7.10;;;7.40;56.20;;;;;;6299841;28;20476;-64
2023/01/21 11:14:39;;;;;;;21.50;19.80;;;7.90;56.10;;;;;;6300033;28;20465;-65
2023/01/21 11:17:45;;;;;;;17.63;16.27;;;8.40;55.10;;;;;;6299547;28;20495;-64
2023/01/21 11:20:49;;;;;;;1.87;1.77;;;9.10;54.00;;;;;;6299406;28;21018;-64
2023/01/21 11:23:54;;;;;;;1.70;1.60;;;9.50;52.80;;;;;;6299843;28;20469;-64
2023/01/21 11:27:00;;;;;;;2.10;1.90;;;9.70;52.30;;;;;;6283108;28;20461;-65
2023/01/21 11:30:05;;;;;;;1.50;1.40;;;9.80;51.20;;;;;;6299564;28;20469;-64
2023/01/21 11:33:28;;;;;;;2.97;1.70;;;9.80;51.00;;;;;;6299465;28;20851;-64
2023/01/21 11:36:34;;;;;;;1.90;1.80;;;9.90;51.50;;;;;;6299588;28;20487;-65
2023/01/21 11:39:40;;;;;;;2.40;1.20;;;10.00;50.40;;;;;;6300236;28;20457;-64
2023/01/21 11:42:47;;;;;;;3.17;1.50;;;10.20;48.90;;;;;;6299341;28;20426;-64
2023/01/21 11:45:51;;;;;;;1.90;1.70;;;10.20;48.60;;;;;;6298234;28;20476;-64
2023/01/21 11:48:56;;;;;;;1.43;1.30;;;10.40;48.30;;;;;;6299052;28;20469;-65
2023/01/21 11:52:20;;;;;;;1.70;1.57;;;10.30;48.00;;;;;;6299477;28;20461;-64
2023/01/21 11:55:25;;;;;;;1.80;1.30;;;9.80;49.10;;;;;;6294702;28;20481;-64
2023/01/21 11:58:32;;;;;;;3.20;1.30;;;9.60;49.10;;;;;;6299266;28;20785;-64
2023/01/21 12:01:35;;;;;;;1.90;1.70;;;9.30;49.90;;;;;;6299252;28;20473;-64
2023/01/21 12:04:43;;;;;;;2.40;1.50;;;9.10;50.10;;;;;;6299298;28;20803;-64
2023/01/21 12:07:50;;;;;;;1.90;1.77;;;8.70;50.60;;;;;;6299404;28;20478;-64
2023/01/21 12:10:55;;;;;;;2.37;1.80;;;8.70;51.20;;;;;;6299527;28;20465;-64
2023/01/21 12:14:07;;;;;;;1.80;1.67;;;8.60;51.30;;;;;;6299348;28;20564;-64
2023/01/21 12:17:18;;;;;;;1.90;1.77;;;8.40;51.00;;;;;;6299005;28;20465;-64
2023/01/21 12:20:31;;;;;;;1.90;1.80;;;8.20;52.00;;;;;;6298970;28;20473;-64
2023/01/21 12:23:51;;;;;;;3.80;2.83;;;8.10;51.70;;;;;;6299374;28;20484;-65
2023/01/21 12:27:03;;;;;;;1.97;1.80;;;7.90;51.60;;;;;;6290224;28;20800;-65
2023/01/21 12:30:19;;;;;;;1.73;1.60;;;7.70;52.80;;;;;;6298683;28;20477;-63
2023/01/21 12:33:42;;;;;;;2.30;2.10;;;7.70;53.00;;;;;;6298907;28;20485;-64
2023/01/21 12:36:49;;;;;;;2.00;1.80;;;7.60;53.20;;;;;;6280158;28;20526;-63
2023/01/21 12:39:57;;;;;;;2.10;1.90;;;7.60;53.30;;;;;;6259897;28;20781;-63
2023/01/21 12:43:06;;;;;;;2.17;1.60;;;7.60;53.20;;;;;;6262602;28;20478;-64
2023/01/21 12:46:16;;;;;;;1.83;1.70;;;7.50;53.40;;;;;;6261273;28;20471;-64
2023/01/21 12:49:25;;;;;;;2.67;2.47;;;7.40;54.10;;;;;;6259543;28;20505;-64
2023/01/21 12:52:37;;;;;;;3.00;2.30;;;7.40;54.30;;;;;;6259619;28;20471;-63
2023/01/21 12:56:06;;;;;;;2.40;2.20;;;7.40;54.60;;;;;;6260517;28;20797;-64
2023/01/21 12:59:17;;;;;;;1.83;1.67;;;7.30;54.70;;;;;;6257331;28;20525;-65
2023/01/21 13:02:27;;;;;;;2.20;2.00;;;7.20;55.70;;;;;;6269300;28;20493;-66
2023/01/21 13:05:39;;;;;;;2.40;1.33;;;7.20;55.60;;;;;;6275606;28;20475;-66
2023/01/21 13:08:54;;;;;;;2.03;1.80;;;7.10;55.40;;;;;;6277515;28;20489;-66
2023/01/21 13:12:04;;;;;;;2.30;2.10;;;7.00;55.80;;;;;;6277918;28;20470;-68
2023/01/21 13:15:16;;;;;;;2.70;2.23;;;7.00;55.70;;;;;;6277487;28;20600;-66
2023/01/21 13:18:25;;;;;;;2.50;2.23;;;6.80;55.70;;;;;;6277720;28;20470;-66
2023/01/21 13:21:36;;;;;;;1.60;1.50;;;6.70;56.00;;;;;;6277976;28;20446;-66
2023/01/21 13:24:59;;;;;;;2.20;2.00;;;6.70;56.40;;;;;;6277565;28;21066;-67
2023/01/21 13:28:13;;;;;;;2.17;2.00;;;6.60;56.80;;;;;;6252433;28;20986;-65
2023/01/21 13:31:21;;;;;;;2.30;1.87;;;6.60;57.00;;;;;;6252658;28;20459;-67
2023/01/21 13:34:33;;;;;;;4.90;2.90;;;6.50;56.70;;;;;;6252984;28;20490;-67
2023/01/21 13:37:43;;;;;;;1.93;1.83;;;6.50;56.80;;;;;;6263108;28;20489;-65
2023/01/21 13:40:53;;;;;;;2.10;1.90;;;6.50;57.10;;;;;;6277562;28;20470;-65
2023/01/21 13:44:12;;;;;;;2.50;2.30;;;6.50;57.10;;;;;;6277617;28;20966;-66
2023/01/21 13:47:30;;;;;;;4.93;2.37;;;6.50;57.30;;;;;;6277199;28;20480;-67
2023/01/21 13:50:46;;;;;;;3.00;2.80;;;6.50;57.50;;;;;;6265376;28;20970;-65
2023/01/21 13:54:04;;;;;;;2.20;1.97;;;6.50;57.70;;;;;;6262852;28;20522;-65
2023/01/21 13:57:19;;;;;;;3.20;2.90;;;6.50;57.30;;;;;;6262698;28;20997;-64
2023/01/21 14:00:29;;;;;;;2.30;2.10;;;6.50;57.00;;;;;;6269760;23;20962;-65
2023/01/21 14:03:40;;;;;;;7.23;3.53;;;6.40;56.90;;;;;;6265264;28;20458;-65
2023/01/21 14:06:51;;;;;;;4.53;3.30;;;6.40;57.10;;;;;;6262984;28;20439;-66
2023/01/21 14:10:02;;;;;;;2.20;2.00;;;6.30;57.40;;;;;;6270847;28;20477;-65
2023/01/21 14:13:42;;;;;;;6.30;2.63;;;6.30;57.70;;;;;;6254901;28;20464;-64
2023/01/21 14:17:36;;;;;;;2.00;1.80;;;6.20;57.50;;;;;;6251258;28;20817;-65
2023/01/21 14:21:06;;;;;;;2.87;2.17;;;6.30;57.60;;;;;;6251296;28;20829;-66
2023/01/21 14:24:21;;;;;;;3.53;2.80;;;6.20;57.50;;;;;;6249614;28;20489;-66
2023/01/21 14:27:32;;;;;;;5.20;2.60;;;6.20;58.00;;;;;;6246762;28;20463;-66
2023/01/21 14:30:41;;;;;;;5.53;3.63;;;6.10;58.00;;;;;;6251345;28;20518;-66
2023/01/21 14:33:51;;;;;;;9.43;4.70;;;6.10;58.40;;;;;;6253163;28;20431;-66
2023/01/21 14:37:04;;;;;;;14.03;6.67;;;6.00;58.10;;;;;;6256536;28;20471;-66
2023/01/21 14:40:16;;;;;;;6.97;4.70;;;6.00;58.50;;;;;;6228489;28;20476;-63
2023/01/21 14:43:49;;;;;;;7.73;4.93;;;5.90;59.00;;;;;;6226220;28;20480;-65
2023/01/21 14:47:14;;;;;;;6.60;4.70;;;5.90;58.90;;;;;;6226334;28;20473;-65
2023/01/21 14:50:45;;;;;;;4.40;4.10;;;5.90;59.10;;;;;;6225876;28;20472;-64
2023/01/21 14:53:51;;;;;;;3.80;2.97;;;6.00;59.00;;;;;;6225227;28;20468;-64
2023/01/21 14:56:56;;;;;;;3.60;2.73;;;6.00;58.70;;;;;;6225055;28;20480;-64
2023/01/21 15:00:20;;;;;;;2.30;2.10;;;6.00;59.20;;;;;;6224995;28;20971;-65
2023/01/21 15:03:27;;;;;;;3.17;2.83;;;5.90;60.00;;;;;;6225328;28;20477;-64
2023/01/21 15:06:35;;;;;;;2.83;2.63;;;5.80;61.90;;;;;;6225846;28;20452;-64
2023/01/21 15:09:44;;;;;;;3.23;2.97;;;5.80;62.90;;;;;;6226082;28;20742;-64
2023/01/21 15:12:52;;;;;;;2.90;2.53;;;5.60;64.80;;;;;;6226208;28;20436;-64
2023/01/21 15:16:14;;;;;;;4.63;3.47;;;5.60;64.60;;;;;;6226425;28;20471;-65
2023/01/21 15:19:28;;;;;;;3.53;3.20;;;5.60;65.00;;;;;;6225810;28;20479;-64
2023/01/21 15:22:45;;;;;;;2.83;2.63;;;5.50;65.80;;;;;;6225581;28;20475;-65
2023/01/21 15:26:29;;;;;;;2.77;2.57;;;5.40;66.90;;;;;;6232045;28;20478;-65
2023/01/21 15:29:34;;;;;;;2.50;2.30;;;5.30;67.70;;;;;;6249391;28;20955;-65
2023/01/21 15:32:39;;;;;;;2.67;2.47;;;5.30;69.60;;;;;;6249653;28;20467;-65
2023/01/21 15:35:44;;;;;;;2.60;2.40;;;5.30;70.50;;;;;;6250460;28;20482;-65
2023/01/21 15:38:49;;;;;;;3.97;2.40;;;5.20;70.80;;;;;;6249208;28;20482;-65
2023/01/21 15:42:03;;;;;;;3.47;3.17;;;5.20;71.10;;;;;;6224723;28;20939;-66
2023/01/21 15:45:30;;;;;;;2.67;2.47;;;5.10;71.10;;;;;;6224828;28;20472;-65
2023/01/21 15:48:56;;;;;;;3.50;3.10;;;5.00;72.90;;;;;;6222425;28;20467;-65
2023/01/21 15:52:12;;;;;;;3.30;2.60;;;4.90;74.40;;;;;;6226114;28;20468;-68
2023/01/21 15:55:28;;;;;;;2.30;2.10;;;4.80;74.20;;;;;;6225077;28;20468;-67
2023/01/21 15:58:44;;;;;;;2.60;2.40;;;4.70;75.70;;;;;;6225252;28;20476;-67
2023/01/21 16:02:00;;;;;;;2.73;2.53;;;4.60;75.90;;;;;;6225005;28;20480;-67
2023/01/21 16:05:19;;;;;;;4.60;3.00;;;4.60;76.30;;;;;;6225741;28;20515;-68
2023/01/21 16:08:33;;;;;;;6.17;2.83;;;4.60;76.10;;;;;;6224765;28;20538;-68
2023/01/21 16:11:55;;;;;;;25.37;8.30;;;4.60;76.40;;;;;;6220413;28;20480;-68
2023/01/21 16:15:05;;;;;;;8.53;5.00;;;4.60;80.60;;;;;;6224748;28;20496;-68
2023/01/21 16:18:22;;;;;;;10.97;5.97;;;4.60;80.60;;;;;;6224604;28;20488;-67
2023/01/21 16:21:32;;;;;;;3.30;2.97;;;4.70;81.90;;;;;;6250077;28;20466;-67
2023/01/21 16:24:42;;;;;;;3.60;3.03;;;4.70;80.10;;;;;;6244017;28;20885;-67
2023/01/21 16:27:49;;;;;;;3.27;2.90;;;4.70;78.90;;;;;;6247527;28;20451;-67
2023/01/21 16:30:56;;;;;;;3.03;2.83;;;4.60;78.30;;;;;;6250293;28;20474;-67
2023/01/21 16:34:00;;;;;;;3.40;3.10;;;4.60;78.00;;;;;;6269891;28;20466;-68